Time;durP1;ratioP1;P1;durP2;ratioP2;P2;SDS_P1;SDS_P2;PMS_P1;PMS_P2;Temp;Humidity;BMP_temperature;BMP_pressure;BME280_temperature;BME280_humidity;BME280_pressure;Samples;Min_cycle;Max_cycle;Signal;HPM_P1;HPM_P2
2022/04/02 00:01:41;;;;;;;12.83;7.13;;;;;;;1.13;100.00;99245.53;10258601;29;20232;-70
2022/04/02 00:06:44;;;;;;;12.70;6.77;;;;;;;1.11;100.00;99237.00;10257610;28;20239;-69
2022/04/02 00:11:49;;;;;;;14.00;6.47;;;;;;;1.12;100.00;99241.25;10257822;29;20224;-72
2022/04/02 00:16:52;;;;;;;12.43;6.27;;;;;;;1.09;100.00;99238.69;10259282;29;20220;-69
2022/04/02 00:21:56;;;;;;;14.43;7.33;;;;;;;1.17;100.00;99238.75;10257957;28;20372;-70
2022/04/02 00:27:00;;;;;;;12.77;7.00;;;;;;;1.07;100.00;99229.31;10257338;29;20542;-70
2022/04/02 00:32:04;;;;;;;11.87;6.40;;;;;;;1.04;100.00;99224.16;10257023;29;20234;-73
2022/04/02 00:37:08;;;;;;;14.70;7.00;;;;;;;1.03;100.00;99228.41;10257034;29;20220;-70
2022/04/02 00:42:12;;;;;;;12.87;6.93;;;;;;;0.99;100.00;99223.25;10256998;28;20730;-71
2022/04/02 00:47:16;;;;;;;12.27;6.70;;;;;;;0.89;100.00;99234.22;10257828;28;20692;-72
2022/04/02 00:52:19;;;;;;;11.90;6.60;;;;;;;0.98;100.00;99226.66;10256502;29;20234;-71
2022/04/02 00:57:24;;;;;;;13.97;7.83;;;;;;;1.00;100.00;99232.66;10256492;29;20228;-71
2022/04/02 01:02:28;;;;;;;11.63;6.73;;;;;;;1.03;100.00;99230.09;10256602;29;20227;-72
2022/04/02 01:07:31;;;;;;;13.90;6.60;;;;;;;0.96;100.00;99234.31;10256216;29;20234;-70
2022/04/02 01:12:36;;;;;;;12.60;6.80;;;;;;;0.90;100.00;99235.91;10256269;29;20688;-69
2022/04/02 01:17:40;;;;;;;10.27;5.97;;;;;;;0.90;100.00;99236.78;10259187;28;20639;-64
2022/04/02 01:22:48;;;;;;;11.47;6.00;;;;;;;0.82;100.00;99230.75;10256101;29;20563;-67
2022/04/02 01:27:54;;;;;;;11.00;5.97;;;;;;;0.98;100.00;99230.03;10256154;29;20230;-70
2022/04/02 01:32:57;;;;;;;11.70;5.97;;;;;;;0.93;100.00;99236.81;10256072;29;20653;-70
2022/04/02 01:38:02;;;;;;;10.50;5.53;;;;;;;1.00;100.00;99232.66;10256151;29;20220;-68
2022/04/02 01:43:05;;;;;;;10.37;5.37;;;;;;;0.97;100.00;99235.16;10256754;29;20228;-68
2022/04/02 01:48:09;;;;;;;13.30;6.20;;;;;;;0.88;100.00;99228.25;10256275;29;20234;-73
2022/04/02 01:53:13;;;;;;;10.57;5.73;;;;;;;0.81;100.00;99233.31;10255703;29;20220;-69
2022/04/02 01:58:17;;;;;;;11.13;5.83;;;;;;;0.76;100.00;99245.16;10259484;28;20227;-73
2022/04/02 02:03:21;;;;;;;10.90;5.60;;;;;;;0.74;100.00;99232.34;10262376;29;20239;-70
2022/04/02 02:08:26;;;;;;;9.93;5.50;;;;;;;0.68;100.00;99239.09;10262501;28;20220;-69
2022/04/02 02:13:29;;;;;;;11.43;5.67;;;;;;;0.68;100.00;99237.41;10264079;28;20692;-69
2022/04/02 02:18:32;;;;;;;11.07;5.77;;;;;;;0.66;100.00;99241.63;10262210;29;20561;-72
2022/04/02 02:23:37;;;;;;;11.60;5.63;;;;;;;0.70;100.00;99242.53;10261908;29;20224;-74
2022/04/02 02:28:42;;;;;;;10.10;5.07;;;;;;;0.71;100.00;99237.44;10261819;29;20230;-73
2022/04/02 02:39:07;;;;;;;9.83;5.10;;;;;;;0.65;100.00;99241.63;10261561;29;20224;-70
2022/04/02 02:44:11;;;;;;;8.40;4.47;;;;;;;0.67;100.00;99245.06;10263010;29;20224;-73
2022/04/02 02:49:14;;;;;;;8.70;4.37;;;;;;;0.62;100.00;99237.31;10261754;28;20230;-73
2022/04/02 02:54:18;;;;;;;8.57;4.47;;;;;;;0.60;100.00;99249.25;10260776;29;20678;-72
2022/04/02 02:59:22;;;;;;;8.00;4.10;;;;;;;0.58;100.00;99240.72;10260687;29;20311;-70
2022/04/02 03:04:25;;;;;;;10.80;3.93;;;;;;;0.49;100.00;99247.38;10260190;29;20240;-67
2022/04/02 03:09:30;;;;;;;9.90;4.50;;;;;;;0.56;100.00;99250.03;10260419;28;20220;-69
2022/04/02 03:14:33;;;;;;;10.17;4.30;;;;;;;0.48;100.00;99256.75;10260716;29;20238;-68
2022/04/02 03:19:36;;;;;;;6.97;3.53;;;;;;;0.44;100.00;99251.56;10259929;28;20222;-69
2022/04/02 03:24:41;;;;;;;9.00;3.13;;;;;;;0.43;100.00;99254.97;10260239;29;20230;-72
2022/04/02 03:29:44;;;;;;;10.37;3.60;;;;;;;0.55;100.00;99244.91;10259436;29;20216;-70
2022/04/02 03:34:47;;;;;;;10.83;3.80;;;;;;;0.37;100.00;99254.91;10259305;29;20231;-71
2022/04/02 03:39:54;;;;;;;271.20;110.23;;;;;;;0.37;100.00;99265.09;10261041;28;20226;-67
2022/04/02 03:44:58;;;;;;;14.30;4.70;;;;;;;0.38;100.00;99248.97;10259118;28;20606;-70
2022/04/02 03:50:01;;;;;;;7.37;3.87;;;;;;;0.42;100.00;99253.25;10258673;29;20219;-67
2022/04/02 03:55:07;;;;;;;8.63;3.97;;;;;;;0.38;100.00;99261.72;10258461;29;20230;-70
2022/04/02 04:00:11;;;;;;;6.67;2.50;;;;;;;0.19;100.00;99260.59;10258416;29;20216;-73
2022/04/02 04:05:15;;;;;;;10.53;3.63;;;;;;;0.27;100.00;99263.28;10258071;28;20232;-72
2022/04/02 04:10:19;;;;;;;30.17;13.77;;;;;;;0.36;100.00;99263.41;10259158;29;20239;-69
2022/04/02 04:15:24;;;;;;;7.97;3.97;;;;;;;0.22;100.00;99268.34;10257572;29;20223;-69
2022/04/02 04:20:27;;;;;;;6.97;3.47;;;;;;;0.22;100.00;99264.91;10256545;28;20228;-71
2022/04/02 04:25:32;;;;;;;6.27;3.17;;;;;;;0.23;100.00;99270.03;10257450;29;20234;-70
2022/04/02 04:30:35;;;;;;;7.90;3.90;;;;;;;0.19;100.00;99269.97;10257342;29;20220;-69
2022/04/02 04:35:39;;;;;;;6.80;3.37;;;;;;;0.21;100.00;99278.50;10256423;28;20243;-72
2022/04/02 04:40:43;;;;;;;8.27;3.93;;;;;;;0.09;100.00;99280.91;10256527;29;20235;-71
2022/04/02 04:45:47;;;;;;;8.03;3.83;;;;;;;0.16;100.00;99285.22;10253919;28;20236;-69
2022/04/02 04:50:50;;;;;;;7.47;4.00;;;;;;;0.09;100.00;99279.19;10253387;28;20588;-70
2022/04/02 04:55:55;;;;;;;9.13;3.73;;;;;;;0.19;100.00;99285.28;9911838;28;9999806;-71
2022/04/02 05:00:59;;;;;;;10.03;4.33;;;;;;;0.24;100.00;99286.19;10253680;29;20220;-69
2022/04/02 05:06:03;;;;;;;7.80;3.47;;;;;;;0.21;100.00;99292.09;10253755;28;20236;-68
2022/04/02 05:11:11;;;;;;;8.93;4.33;;;;;;;0.27;100.00;99293.88;10254445;28;20247;-70
2022/04/02 05:16:14;;;;;;;8.33;4.37;;;;;;;0.29;100.00;99300.75;10253057;28;20224;-68
2022/04/02 05:21:18;;;;;;;10.77;5.10;;;;;;;0.31;100.00;99291.38;10253004;29;20220;-71
2022/04/02 05:26:23;;;;;;;10.97;4.73;;;;;;;0.25;100.00;99295.56;10252704;28;20226;-73
2022/04/02 05:31:28;;;;;;;8.33;4.53;;;;;;;0.23;100.00;99300.63;10254810;28;20203;-69
2022/04/02 05:36:32;;;;;;;9.67;4.10;;;;;;;0.29;100.00;99308.41;10262513;28;20239;-70
2022/04/02 05:41:37;;;;;;;9.97;3.87;;;;;;;0.18;100.00;99309.06;10262258;28;20196;-67
2022/04/02 05:46:41;;;;;;;12.30;5.43;;;;;;;0.15;100.00;99309.88;10260250;29;20219;-73
2022/04/02 05:51:44;;;;;;;9.23;3.30;;;;;;;0.25;100.00;99309.19;10260127;29;20180;-72
2022/04/02 05:56:53;;;;;;;7.47;3.70;;;;;;;0.27;100.00;99312.63;10259691;29;20235;-72
2022/04/02 06:01:56;;;;;;;8.77;3.70;;;;;;;0.26;100.00;99327.91;10259590;29;20211;-71
2022/04/02 06:06:59;;;;;;;7.43;3.93;;;;;;;0.31;100.00;99328.81;10260390;29;20312;-69
2022/04/02 06:12:05;;;;;;;9.00;3.47;;;;;;;0.29;100.00;99335.59;10260545;28;20627;-70
2022/04/02 06:17:08;;;;;;;9.27;3.60;;;;;;;0.14;100.00;99341.31;10258807;29;20216;-70
2022/04/02 06:22:12;;;;;;;32.13;12.90;;;;;;;0.21;100.00;99345.66;10258899;29;20278;-75
2022/04/02 06:27:17;;;;;;;7.20;3.47;;;;;;;0.12;100.00;99345.56;10259171;28;20212;-71
2022/04/02 06:32:22;;;;;;;7.83;3.43;;;;;;;0.28;100.00;99351.72;10259074;29;20196;-69
2022/04/02 06:37:25;;;;;;;8.73;3.70;;;;;;;0.26;100.00;99348.31;10267368;29;20200;-71
2022/04/02 06:42:31;;;;;;;8.20;3.47;;;;;;;0.23;100.00;99353.34;10261249;28;20223;-72
2022/04/02 06:47:34;;;;;;;6.93;3.23;;;;;;;0.31;100.00;99352.63;10261380;29;20195;-73
2022/04/02 06:52:39;;;;;;;10.03;4.57;;;;;;;0.28;100.00;99356.81;10260867;29;20307;-68
2022/04/02 06:57:46;;;;;;;8.10;3.53;;;;;;;0.38;100.00;99362.06;10260699;28;20287;-69
2022/04/02 07:02:50;;;;;;;7.00;3.33;;;;;;;0.39;100.00;99365.50;10260232;29;20236;-67
2022/04/02 07:07:53;;;;;;;205.70;64.17;;;;;;;0.42;100.00;99368.09;10259991;29;20200;-65
2022/04/02 07:12:58;;;;;;;8.77;3.97;;;;;;;0.34;100.00;99362.03;10259780;28;20279;-70
2022/04/02 07:18:06;;;;;;;9.03;4.03;;;;;;;0.38;100.00;99371.44;10259939;28;20215;-70
2022/04/02 07:23:10;;;;;;;9.20;4.23;;;;;;;0.44;100.00;99369.81;10259953;29;20196;-68
2022/04/02 07:28:16;;;;;;;8.83;3.83;;;;;;;0.49;100.00;99369.88;10259628;28;20265;-67
2022/04/02 07:33:21;;;;;;;11.50;4.10;;;;;;;0.47;100.00;99363.91;10258938;29;20234;-68
2022/04/02 07:38:39;;;;;;;9.43;3.53;;;;;;;0.59;100.00;99366.59;10259438;29;20518;-70
2022/04/02 07:43:50;;;;;;;8.80;3.40;;;;;;;0.57;100.00;99375.97;10258785;29;20206;-73
2022/04/02 07:48:54;;;;;;;8.80;4.03;;;;;;;0.58;100.00;99378.53;10258813;29;20196;-68
2022/04/02 07:54:05;;;;;;;9.70;4.37;;;;;;;0.60;100.00;99373.44;10258083;28;20223;-67
2022/04/02 07:59:12;;;;;;;8.70;3.93;;;;;;;0.65;100.00;99385.44;10258247;29;20619;-71
2022/04/02 08:04:21;;;;;;;11.70;4.93;;;;;;;0.69;100.00;99384.63;10257951;29;20663;-68
2022/04/02 08:09:26;;;;;;;8.27;4.37;;;;;;;0.72;100.00;99387.25;10257649;29;20279;-66
2022/04/02 08:14:31;;;;;;;7.07;3.97;;;;;;;0.67;100.00;99388.88;10258088;29;20224;-67
2022/04/02 08:19:37;;;;;;;9.67;4.13;;;;;;;0.81;100.00;99397.56;10258666;29;20272;-71
2022/04/02 08:24:40;;;;;;;7.87;3.63;;;;;;;0.85;100.00;99404.44;10257449;29;20218;-72
2022/04/02 08:29:56;;;;;;;10.20;5.30;;;;;;;0.96;100.00;99399.44;10257773;28;20202;-69
2022/04/02 08:35:06;;;;;;;20.33;7.83;;;;;;;0.98;100.00;99405.44;10257000;29;20223;-68
2022/04/02 08:40:37;;;;;;;11.97;4.23;;;;;;;0.98;100.00;99405.44;10257278;29;20231;-72
2022/04/02 08:45:56;;;;;;;7.27;3.73;;;;;;;1.09;100.00;99408.97;10256654;29;20725;-69
2022/04/02 08:51:15;;;;;;;6.93;3.67;;;;;;;1.19;100.00;99418.47;10256502;29;20239;-71
2022/04/02 08:56:24;;;;;;;9.20;5.30;;;;;;;1.22;100.00;99412.53;10255445;29;20239;-70
2022/04/02 09:01:38;;;;;;;12.07;5.77;;;;;;;1.27;100.00;99411.75;10256407;29;20211;-70
2022/04/02 09:07:28;;;;;;;9.20;4.60;;;;;;;1.10;100.00;99420.91;10255607;29;20236;-72
2022/04/02 09:12:50;;;;;;;12.33;5.53;;;;;;;1.17;100.00;99423.53;10256262;29;20223;-69
2022/04/02 09:18:02;;;;;;;10.43;5.73;;;;;;;1.30;100.00;99422.00;10256216;29;20223;-68
2022/04/02 09:23:10;;;;;;;9.47;5.50;;;;;;;1.44;100.00;99430.69;10255971;28;20546;-70
2022/04/02 09:28:42;;;;;;;9.37;5.83;;;;;;;1.44;100.00;99435.78;10256227;29;20282;-66
2022/04/02 09:34:14;;;;;;;11.67;6.10;;;;;;;1.39;100.00;99434.88;10254548;28;20216;-71
2022/04/02 09:39:23;;;;;;;13.53;6.63;;;;;;;1.59;100.00;99437.69;10252587;28;20674;-68
2022/04/02 09:44:40;;;;;;;12.97;5.93;;;;;;;1.66;100.00;99435.19;10252395;29;20247;-70
2022/04/02 09:49:57;;;;;;;10.50;5.13;;;;;;;1.63;100.00;99442.81;10252906;29;20319;-70
2022/04/02 09:55:07;;;;;;;10.33;5.17;;;;;;;1.70;100.00;99436.06;10252553;29;20235;-68
2022/04/02 10:00:11;;;;;;;11.83;5.87;;;;;;;1.72;100.00;99442.94;10251943;29;20220;-69
2022/04/02 10:05:24;;;;;;;12.60;5.67;;;;;;;1.80;100.00;99438.75;10267584;28;20302;-69
2022/04/02 10:10:30;;;;;;;10.60;4.97;;;;;;;1.79;100.00;99443.84;10252038;28;20220;-68
2022/04/02 10:15:34;;;;;;;10.20;5.50;;;;;;;1.95;100.00;99444.00;10251989;29;20252;-68
2022/04/02 10:20:39;;;;;;;9.67;5.20;;;;;;;2.03;100.00;99442.38;9914396;28;9999993;-70
2022/04/02 10:26:03;;;;;;;10.53;4.80;;;;;;;2.18;100.00;99445.06;10258283;29;20243;-67
2022/04/02 10:31:07;;;;;;;11.70;5.87;;;;;;;2.09;100.00;99450.09;10259122;28;20246;-68
2022/04/02 10:36:12;;;;;;;11.13;5.13;;;;;;;2.23;100.00;99445.09;10258106;29;20227;-67
2022/04/02 10:41:17;;;;;;;11.83;6.30;;;;;;;2.23;100.00;99445.94;10258394;29;20220;-66
2022/04/02 10:46:23;;;;;;;11.57;5.93;;;;;;;2.32;100.00;99460.53;10258615;29;20239;-69
2022/04/02 10:51:30;;;;;;;10.93;5.80;;;;;;;2.39;100.00;99457.19;10257537;28;20224;-64
2022/04/02 10:56:35;;;;;;;11.63;5.80;;;;;;;2.46;100.00;99455.50;10257381;29;20234;-64
2022/04/02 11:01:41;;;;;;;12.87;5.73;;;;;;;2.41;100.00;99454.63;10257480;28;20219;-66
2022/04/02 11:06:51;;;;;;;11.47;6.30;;;;;;;2.64;100.00;99461.63;10257107;28;20254;-65
2022/04/02 11:11:57;;;;;;;15.47;6.10;;;;;;;2.74;100.00;99460.00;10257177;28;20299;-68
2022/04/02 11:17:00;;;;;;;11.63;6.43;;;;;;;2.89;100.00;99455.81;10256624;29;20668;-71
2022/04/02 11:22:08;;;;;;;10.97;6.30;;;;;;;2.96;100.00;99452.44;10256405;29;20248;-69
2022/04/02 11:27:16;;;;;;;12.03;5.70;;;;;;;3.06;100.00;99449.06;10256554;29;20255;-67
2022/04/02 11:32:24;;;;;;;11.47;5.97;;;;;;;3.21;100.00;99443.16;10255732;28;20216;-66
2022/04/02 11:37:36;;;;;;;15.30;6.23;;;;;;;3.26;100.00;99447.44;10255851;29;20224;-67
2022/04/02 11:42:47;;;;;;;14.90;6.60;;;;;;;3.40;100.00;99450.06;10255980;28;20244;-69
2022/04/02 11:47:52;;;;;;;12.83;6.70;;;;;;;3.45;100.00;99448.41;10255847;29;20680;-68
2022/04/02 11:52:58;;;;;;;13.00;7.53;;;;;;;3.46;100.00;99443.25;10255755;29;20216;-66
2022/04/02 11:58:05;;;;;;;17.43;6.87;;;;;;;3.57;100.00;99440.75;10255066;29;20228;-69
2022/04/02 12:03:22;;;;;;;14.27;6.63;;;;;;;3.74;100.00;99441.63;10254812;29;20232;-70
2022/04/02 12:08:32;;;;;;;15.70;6.73;;;;;;;3.84;100.00;99422.84;10254978;29;20234;-66
2022/04/02 12:13:36;;;;;;;12.00;6.67;;;;;;;3.91;100.00;99427.13;10254553;29;20222;-64
2022/04/02 12:18:54;;;;;;;14.53;7.17;;;;;;;3.95;100.00;99433.13;10254184;28;20303;-67
2022/04/02 12:24:00;;;;;;;13.43;6.87;;;;;;;3.94;100.00;99429.69;10254513;29;20658;-65
2022/04/02 12:29:04;;;;;;;14.27;6.90;;;;;;;3.91;100.00;99428.81;10254491;28;20242;-67
2022/04/02 12:34:09;;;;;;;14.00;7.23;;;;;;;3.90;100.00;99434.81;10253900;28;20311;-70
2022/04/02 12:39:20;;;;;;;11.40;6.60;;;;;;;3.99;100.00;99440.81;10253756;28;20524;-67
2022/04/02 12:44:24;;;;;;;13.87;7.50;;;;;;;4.02;100.00;99435.66;10253019;28;20550;-68
2022/04/02 12:49:30;;;;;;;17.53;8.97;;;;;;;4.20;100.00;99432.25;10253439;29;20573;-68
2022/04/02 12:54:35;;;;;;;16.10;7.47;;;;;;;4.36;100.00;99432.28;10275284;28;20219;-69
2022/04/02 12:59:43;;;;;;;13.20;7.50;;;;;;;4.54;100.00;99427.13;10293140;28;20222;-70
2022/04/02 13:04:54;;;;;;;14.27;8.93;;;;;;;4.60;100.00;99423.69;10293188;28;20237;-69
2022/04/02 13:10:06;;;;;;;14.83;7.30;;;;;;;4.53;100.00;99425.41;10293047;28;20208;-74
2022/04/02 13:15:11;;;;;;;16.33;7.67;;;;;;;4.72;100.00;99426.25;10293028;28;20223;-71
2022/04/02 13:20:30;;;;;;;13.33;6.60;;;;;;;4.79;100.00;99429.66;10257835;28;20718;-70
2022/04/02 13:25:48;;;;;;;13.87;8.70;;;;;;;4.90;100.00;99428.75;10252929;29;20231;-67
2022/04/02 13:30:53;;;;;;;12.90;7.87;;;;;;;4.88;100.00;99424.50;10253216;29;20199;-65
2022/04/02 13:36:03;;;;;;;14.93;6.50;;;;;;;4.95;100.00;99439.91;10252558;29;20231;-68
2022/04/02 13:41:14;;;;;;;14.80;7.03;;;;;;;4.97;100.00;99435.59;10252436;29;20224;-69
2022/04/02 13:46:24;;;;;;;11.33;6.80;;;;;;;5.03;100.00;99440.72;10252729;29;20303;-69
2022/04/02 13:51:43;;;;;;;12.00;7.00;;;;;;;4.96;100.00;99443.31;10252377;28;20546;-69
2022/04/02 13:56:58;;;;;;;12.93;6.17;;;;;;;5.02;100.00;99444.16;10260125;29;20247;-67
2022/04/02 14:02:01;;;;;;;12.30;6.33;;;;;;;5.15;100.00;99434.69;10260372;29;20254;-69
2022/04/02 14:07:07;;;;;;;14.00;6.73;;;;;;;5.15;100.00;99444.97;10259212;28;20260;-71
2022/04/02 14:12:20;;;;;;;15.63;6.10;;;;;;;5.10;100.00;99449.28;10259541;29;20192;-74
2022/04/02 14:17:29;;;;;;;16.20;7.83;;;;;;;5.03;100.00;99450.16;10259037;29;20227;-70
2022/04/02 14:22:44;;;;;;;19.20;8.53;;;;;;;5.07;100.00;99449.28;10258766;29;20240;-70
2022/04/02 14:28:31;;;;;;;17.00;7.30;;;;;;;5.16;100.00;99450.09;10259070;28;20236;-68
2022/04/02 14:34:06;;;;;;;14.67;7.13;;;;;;;5.16;100.00;99454.41;10258555;29;20238;-68
2022/04/02 14:39:45;;;;;;;17.73;7.80;;;;;;;5.22;100.00;99456.94;10216970;28;20240;-67
2022/04/02 14:45:16;;;;;;;14.00;7.53;;;;;;;5.27;100.00;99455.22;10257983;28;20242;-69
2022/04/02 14:50:53;;;;;;;11.23;6.73;;;;;;;5.18;100.00;99461.25;10256219;29;20216;-68
2022/04/02 14:56:29;;;;;;;12.37;6.97;;;;;;;5.16;100.00;99459.56;10238977;29;20227;-65
2022/04/02 15:02:02;;;;;;;14.67;6.50;;;;;;;5.19;100.00;99467.25;10184369;29;20565;-65
2022/04/02 15:07:27;;;;;;;16.50;7.77;;;;;;;5.31;100.00;99469.78;10251447;28;20236;-67
2022/04/02 15:12:37;;;;;;;12.77;5.73;;;;;;;5.43;100.00;99470.59;10256330;28;20284;-69
2022/04/02 15:17:42;;;;;;;8.33;4.30;;;;;;;5.34;100.00;99478.34;10255153;28;20227;-70
2022/04/02 15:23:04;;;;;;;9.20;4.83;;;;;;;5.41;100.00;99480.03;10255353;29;20220;-70
2022/04/02 15:28:17;;;;;;;10.07;5.30;;;;;;;5.42;100.00;99491.16;10256220;29;20327;-68
2022/04/02 15:33:23;;;;;;;10.80;5.03;;;;;;;5.39;100.00;99486.03;10255199;29;20597;-66
2022/04/02 15:38:50;;;;;;;10.47;4.97;;;;;;;5.36;100.00;99491.22;10255148;28;20236;-68
2022/04/02 15:43:55;;;;;;;16.67;4.20;;;;;;;5.24;100.00;99486.09;10255146;28;20662;-67
2022/04/02 15:49:30;;;;;;;8.90;4.00;;;;;;;5.26;100.00;99500.69;10255594;28;20758;-70
2022/04/02 15:54:38;;;;;;;35.53;16.30;;;;;;;5.14;100.00;99512.72;10258060;28;20290;-70
2022/04/02 16:00:20;;;;;;;10.60;3.27;;;;;;;5.11;97.46;99507.59;10258426;28;20242;-68
2022/04/02 16:05:32;;;;;;;7.23;3.27;;;;;;;5.01;94.34;99516.16;10258094;28;20599;-69
2022/04/02 16:10:42;;;;;;;9.90;3.77;;;;;;;4.96;94.16;99528.16;10258099;28;20227;-70
2022/04/02 16:16:01;;;;;;;29.50;12.10;;;;;;;4.81;96.49;99531.59;10257738;28;20223;-67
2022/04/02 16:21:24;;;;;;;6.20;2.73;;;;;;;4.76;92.77;99538.47;10256865;28;20290;-69
2022/04/02 16:26:29;;;;;;;7.80;2.87;;;;;;;4.70;92.28;99547.03;10256375;29;20211;-68
2022/04/02 16:31:36;;;;;;;5.77;2.80;;;;;;;4.65;86.02;99547.88;10257406;28;20196;-72
2022/04/02 16:36:41;;;;;;;7.60;3.13;;;;;;;4.39;93.45;99553.00;10255012;29;20234;-69
2022/04/02 16:41:46;;;;;;;7.70;3.27;;;;;;;4.35;91.28;99564.09;10256885;29;20210;-71
2022/04/02 16:46:51;;;;;;;7.90;3.27;;;;;;;4.35;91.74;99558.97;10256887;28;20196;-69
2022/04/02 16:52:04;;;;;;;7.23;2.93;;;;;;;4.28;86.87;99569.25;10255814;29;20192;-68
2022/04/02 16:57:25;;;;;;;7.37;3.20;;;;;;;4.26;87.40;99583.78;10254852;29;20290;-67
2022/04/02 17:02:31;;;;;;;10.27;3.53;;;;;;;4.14;89.88;99592.28;10255682;29;20192;-67
2022/04/02 17:07:46;;;;;;;43.87;19.90;;;;;;;4.08;85.17;99605.13;10255851;29;20204;-69
2022/04/02 17:12:53;;;;;;;7.43;3.33;;;;;;;4.06;82.22;99611.09;10255903;28;20322;-71
2022/04/02 17:18:05;;;;;;;9.70;3.73;;;;;;;3.93;91.15;99617.03;10255580;29;20236;-70
2022/04/02 17:23:11;;;;;;;8.23;3.20;;;;;;;3.91;89.19;99619.63;10256269;29;20224;-69
2022/04/02 17:28:16;;;;;;;10.63;3.90;;;;;;;3.86;87.77;99630.69;10258944;28;20216;-69
2022/04/02 17:33:25;;;;;;;7.33;3.30;;;;;;;3.78;91.28;99646.03;10262757;29;20220;-69
2022/04/02 17:38:31;;;;;;;9.77;3.97;;;;;;;3.76;87.32;99650.34;10262641;29;20311;-67
2022/04/02 17:43:38;;;;;;;10.47;3.90;;;;;;;3.83;83.60;99654.63;10262349;29;20686;-70
2022/04/02 17:48:42;;;;;;;10.50;4.03;;;;;;;3.64;80.02;99660.53;10262484;28;20228;-64
2022/04/02 17:53:45;;;;;;;9.03;3.67;;;;;;;3.53;84.72;99668.16;10261740;28;20558;-64
2022/04/02 17:58:51;;;;;;;8.90;4.03;;;;;;;3.52;79.99;99665.56;10262968;28;20303;-69
2022/04/02 18:03:54;;;;;;;9.40;4.43;;;;;;;3.60;80.37;99671.63;10262429;29;20250;-69
2022/04/02 18:09:00;;;;;;;10.00;4.20;;;;;;;3.62;80.57;99671.63;10262882;29;20220;-65
2022/04/02 18:14:05;;;;;;;10.90;4.87;;;;;;;3.61;79.16;99677.63;10262435;29;20278;-68
2022/04/02 18:19:10;;;;;;;9.33;4.57;;;;;;;3.52;79.95;99688.63;10262924;29;20307;-69
2022/04/02 18:24:13;;;;;;;11.33;4.27;;;;;;;3.48;80.60;99692.91;10262004;29;20230;-70
2022/04/02 18:29:18;;;;;;;18.80;6.93;;;;;;;3.49;73.68;99701.44;9914637;28;10000080;-65
2022/04/02 18:34:21;;;;;;;7.50;3.43;;;;;;;3.36;70.00;99694.53;10253188;29;20197;-64
2022/04/02 18:39:25;;;;;;;7.00;3.70;;;;;;;3.37;71.13;99703.91;10257119;28;20286;-69
2022/04/02 18:44:30;;;;;;;9.63;3.97;;;;;;;3.45;72.59;99710.00;10258090;28;20196;-69
2022/04/02 18:49:33;;;;;;;19.03;4.23;;;;;;;3.49;74.67;99727.97;10258225;28;20279;-68
2022/04/02 18:54:37;;;;;;;9.47;3.80;;;;;;;3.45;74.80;99721.09;10258933;28;20299;-67
2022/04/02 18:59:42;;;;;;;15.20;5.07;;;;;;;3.40;76.35;99735.56;10261201;29;20598;-69
2022/04/02 19:04:45;;;;;;;15.57;5.17;;;;;;;3.39;74.03;99733.00;10260304;28;20258;-65
2022/04/02 19:09:49;;;;;;;12.57;4.40;;;;;;;3.32;73.64;99734.66;10260330;29;20686;-65
2022/04/02 19:14:53;;;;;;;9.47;3.60;;;;;;;3.28;72.32;99742.28;10259915;28;20553;-67
2022/04/02 19:19:57;;;;;;;14.30;4.43;;;;;;;3.26;75.60;99759.41;10259753;28;20246;-69
2022/04/02 19:25:00;;;;;;;7.77;3.53;;;;;;;3.17;75.55;99759.31;10259856;29;20299;-65
2022/04/02 19:30:06;;;;;;;10.50;4.43;;;;;;;3.10;75.46;99760.97;10259567;28;20299;-68
2022/04/02 19:35:10;;;;;;;10.90;3.70;;;;;;;3.02;77.77;99772.81;10259427;28;20221;-68
2022/04/02 19:40:34;;;;;;;10.90;3.57;;;;;;;2.97;73.78;99777.03;10259074;28;20654;-66
2022/04/02 19:45:38;;;;;;;9.87;3.80;;;;;;;2.92;77.13;99794.06;10258938;28;20231;-67
2022/04/02 19:50:42;;;;;;;15.37;4.30;;;;;;;2.87;78.89;99792.28;10258449;28;20302;-68
2022/04/02 19:55:45;;;;;;;11.87;3.83;;;;;;;2.93;77.04;99789.81;10259144;29;20303;-68
2022/04/02 20:00:50;;;;;;;15.57;6.27;;;;;;;2.92;74.88;99793.19;10258243;28;20315;-67
2022/04/02 20:05:53;;;;;;;14.23;5.40;;;;;;;2.85;75.39;99802.53;10257421;28;20244;-64
2022/04/02 20:10:57;;;;;;;9.83;4.83;;;;;;;2.83;73.52;99803.38;10254893;28;20303;-65
2022/04/02 20:16:02;;;;;;;15.67;5.67;;;;;;;2.81;73.79;99812.72;10254850;28;20702;-68
2022/04/02 20:21:05;;;;;;;13.87;5.67;;;;;;;2.75;74.26;99808.38;10254636;28;20232;-63
2022/04/02 20:26:09;;;;;;;13.50;6.03;;;;;;;2.70;77.73;99814.28;10254385;28;20228;-71
2022/04/02 20:31:18;;;;;;;11.30;5.50;;;;;;;2.73;77.91;99814.31;10254177;28;20232;-66
2022/04/02 20:36:22;;;;;;;280.20;95.20;;;;;;;2.75;76.96;99822.88;10254476;28;20216;-68
2022/04/02 20:41:26;;;;;;;16.20;5.97;;;;;;;2.68;78.26;99826.22;9912035;28;10000411;-68
2022/04/02 20:46:37;;;;;;;11.03;4.60;;;;;;;2.70;78.18;99819.41;10253718;28;20220;-67
2022/04/02 20:51:41;;;;;;;13.90;6.30;;;;;;;2.64;78.42;99829.59;10253400;29;20220;-67
2022/04/02 20:56:48;;;;;;;13.93;5.57;;;;;;;2.61;82.26;99829.53;10253629;29;20234;-68
2022/04/02 21:01:53;;;;;;;10.00;4.37;;;;;;;2.57;82.13;99836.34;10252633;28;20231;-68
2022/04/02 21:06:56;;;;;;;13.60;5.40;;;;;;;2.49;82.17;99845.59;10253015;29;20227;-69
2022/04/02 21:11:59;;;;;;;12.37;4.97;;;;;;;2.42;81.28;99848.09;10253309;29;20234;-66
2022/04/02 21:17:04;;;;;;;10.53;4.57;;;;;;;2.36;82.88;99849.69;10252965;28;20224;-69
2022/04/02 21:22:08;;;;;;;12.33;5.03;;;;;;;2.28;81.40;99858.97;10252699;28;20231;-70
2022/04/02 21:27:11;;;;;;;9.03;4.27;;;;;;;2.31;83.04;99864.13;10253131;29;20220;-70
2022/04/02 21:32:15;;;;;;;14.27;4.97;;;;;;;2.22;82.10;99871.69;10252726;29;20535;-69
2022/04/02 21:37:20;;;;;;;11.47;4.30;;;;;;;2.18;81.29;99876.72;10253287;29;20220;-67
2022/04/02 21:42:24;;;;;;;13.70;4.37;;;;;;;2.09;83.69;99884.25;10252548;29;20224;-66
2022/04/02 21:47:29;;;;;;;12.03;4.73;;;;;;;2.11;81.41;99892.81;10252200;29;20223;-68
2022/04/02 21:52:32;;;;;;;12.63;3.77;;;;;;;1.98;83.00;99885.78;10252548;29;20746;-67
2022/04/02 21:57:36;;;;;;;10.17;4.30;;;;;;;1.94;85.03;99897.69;10251963;28;20567;-68
2022/04/02 22:02:41;;;;;;;9.07;4.17;;;;;;;1.93;84.22;99895.09;10252014;29;20256;-67
2022/04/02 22:07:45;;;;;;;9.53;4.17;;;;;;;1.86;84.56;99891.59;10252202;28;20220;-69
2022/04/02 22:12:48;;;;;;;6.77;3.30;;;;;;;1.75;85.54;99894.78;10252550;28;20681;-66
2022/04/02 22:17:53;;;;;;;9.43;4.17;;;;;;;1.73;84.55;99899.00;10259136;29;20298;-68
2022/04/02 22:22:56;;;;;;;11.73;3.50;;;;;;;1.69;86.16;99902.34;10259179;28;20231;-65
2022/04/02 22:28:00;;;;;;;9.73;3.50;;;;;;;1.61;85.70;99909.88;10258947;29;20686;-69
2022/04/02 22:33:05;;;;;;;11.10;4.33;;;;;;;1.59;85.69;99908.16;10258762;29;20310;-71
2022/04/02 22:38:10;;;;;;;11.20;4.87;;;;;;;1.53;86.40;99908.00;10258324;29;20858;-68
2022/04/02 22:43:14;;;;;;;7.73;3.53;;;;;;;1.46;87.31;99912.16;10258123;28;20291;-71
2022/04/02 22:48:18;;;;;;;13.90;4.70;;;;;;;1.39;85.90;99918.00;10258208;28;20320;-66
2022/04/02 22:53:22;;;;;;;11.97;4.13;;;;;;;1.39;86.74;99930.78;10258043;29;20248;-65
2022/04/02 22:58:26;;;;;;;9.47;3.80;;;;;;;1.30;86.67;99922.91;10257644;29;20252;-68
2022/04/02 23:03:31;;;;;;;11.27;4.47;;;;;;;1.31;87.16;99932.31;10257524;28;20294;-66
2022/04/02 23:08:35;;;;;;;8.47;3.90;;;;;;;1.19;87.76;99932.91;10257155;29;20224;-65
2022/04/02 23:13:38;;;;;;;15.60;4.50;;;;;;;1.19;86.24;99932.91;10256964;29;20366;-67
2022/04/02 23:18:43;;;;;;;8.50;3.30;;;;;;;1.14;88.99;99942.19;10256921;29;20240;-71
2022/04/02 23:23:47;;;;;;;12.47;4.30;;;;;;;1.14;87.41;99944.75;10256890;28;20236;-66
2022/04/02 23:28:52;;;;;;;11.07;4.90;;;;;;;0.96;86.80;99946.06;10255987;29;20232;-64
2022/04/02 23:33:56;;;;;;;14.83;4.77;;;;;;;0.76;86.95;99944.78;10256361;29;20243;-65
2022/04/02 23:39:02;;;;;;;7.20;3.80;;;;;;;0.75;88.20;99958.38;10256023;28;20238;-67
2022/04/02 23:44:07;;;;;;;10.97;4.60;;;;;;;0.87;87.41;99953.53;10256107;29;20270;-70
2022/04/02 23:49:12;;;;;;;12.53;4.10;;;;;;;0.86;87.71;99945.00;10255641;29;20725;-65